sensor_id;sensor_type;location;lat;lon;timestamp;pressure;altitude;pressure_sealevel;temperature;humidity
76352;BME280;65179;47.786;19.138;2023-05-24T00:00:27;100040.78;;;18.63;80.31
76352;BME280;65179;47.786;19.138;2023-05-24T00:02:53;100033.37;;;18.59;80.00
76352;BME280;65179;47.786;19.138;2023-05-24T00:05:19;100033.37;;;18.54;80.26
76352;BME280;65179;47.786;19.138;2023-05-24T00:07:44;100031.22;;;18.51;80.31
76352;BME280;65179;47.786;19.138;2023-05-24T00:10:10;100017.47;;;18.56;80.13
76352;BME280;65179;47.786;19.138;2023-05-24T00:12:36;100013.59;;;18.52;80.24
76352;BME280;65179;47.786;19.138;2023-05-24T00:15:01;100019.41;;;18.45;80.66
76352;BME280;65179;47.786;19.138;2023-05-24T00:17:27;100025.44;;;18.37;80.72
76352;BME280;65179;47.786;19.138;2023-05-24T00:19:54;100019.09;;;18.57;80.31
76352;BME280;65179;47.786;19.138;2023-05-24T00:22:20;100022.41;;;18.44;80.57
76352;BME280;65179;47.786;19.138;2023-05-24T00:24:46;100022.41;;;18.44;80.65
76352;BME280;65179;47.786;19.138;2023-05-24T00:27:13;100027.66;;;18.40;81.34
76352;BME280;65179;47.786;19.138;2023-05-24T00:29:38;100021.62;;;18.33;81.40
76352;BME280;65179;47.786;19.138;2023-05-24T00:32:04;100027.66;;;18.35;81.08
76352;BME280;65179;47.786;19.138;2023-05-24T00:34:29;100021.38;;;18.30;81.25
76352;BME280;65179;47.786;19.138;2023-05-24T00:36:55;100016.41;;;18.27;81.20
76352;BME280;65179;47.786;19.138;2023-05-24T00:39:22;100015.31;;;18.28;81.35
76352;BME280;65179;47.786;19.138;2023-05-24T00:41:47;100008.41;;;18.35;80.81
76352;BME280;65179;47.786;19.138;2023-05-24T00:44:12;100010.66;;;18.23;81.17
76352;BME280;65179;47.786;19.138;2023-05-24T00:46:38;100013.37;;;18.28;81.18
76352;BME280;65179;47.786;19.138;2023-05-24T00:49:03;100019.72;;;18.29;81.08
76352;BME280;65179;47.786;19.138;2023-05-24T00:51:29;100009.84;;;18.23;81.30
76352;BME280;65179;47.786;19.138;2023-05-24T00:53:56;100009.53;;;18.24;81.47
76352;BME280;65179;47.786;19.138;2023-05-24T00:56:22;100004.34;;;18.23;81.57
76352;BME280;65179;47.786;19.138;2023-05-24T00:58:49;100011.78;;;18.07;82.00
76352;BME280;65179;47.786;19.138;2023-05-24T01:01:18;100006.00;;;18.13;82.05
76352;BME280;65179;47.786;19.138;2023-05-24T01:03:44;100007.69;;;17.99;82.46
76352;BME280;65179;47.786;19.138;2023-05-24T01:06:12;100012.66;;;17.97;82.63
76352;BME280;65179;47.786;19.138;2023-05-24T01:19:13;100001.91;;;18.06;82.69
76352;BME280;65179;47.786;19.138;2023-05-24T01:21:53;100013.16;;;18.04;82.69
76352;BME280;65179;47.786;19.138;2023-05-24T01:27:11;100009.03;;;18.07;82.90
76352;BME280;65179;47.786;19.138;2023-05-24T01:29:37;100007.97;;;18.03;82.72
76352;BME280;65179;47.786;19.138;2023-05-24T01:32:03;100006.87;;;17.94;82.89
76352;BME280;65179;47.786;19.138;2023-05-24T01:34:29;100009.63;;;17.94;82.90
76352;BME280;65179;47.786;19.138;2023-05-24T01:36:55;100012.66;;;17.87;83.54
76352;BME280;65179;47.786;19.138;2023-05-24T01:39:23;100009.63;;;17.79;83.76
76352;BME280;65179;47.786;19.138;2023-05-24T01:44:43;100004.69;;;17.66;84.45
76352;BME280;65179;47.786;19.138;2023-05-24T01:49:58;100002.53;;;17.58;85.26
76352;BME280;65179;47.786;19.138;2023-05-24T01:52:30;100002.78;;;17.51;85.06
76352;BME280;65179;47.786;19.138;2023-05-24T01:54:56;99999.47;;;17.49;85.51
76352;BME280;65179;47.786;19.138;2023-05-24T01:57:23;99995.13;;;17.58;85.07
76352;BME280;65179;47.786;19.138;2023-05-24T01:59:51;99996.19;;;17.57;85.25
76352;BME280;65179;47.786;19.138;2023-05-24T02:02:17;99996.19;;;17.57;85.31
76352;BME280;65179;47.786;19.138;2023-05-24T02:04:43;99990.41;;;17.59;85.42
76352;BME280;65179;47.786;19.138;2023-05-24T02:07:08;99992.59;;;17.47;85.65
76352;BME280;65179;47.786;19.138;2023-05-24T02:09:34;99990.69;;;17.52;85.71
76352;BME280;65179;47.786;19.138;2023-05-24T02:11:59;99993.97;;;17.49;85.93
76352;BME280;65179;47.786;19.138;2023-05-24T02:14:25;99987.66;;;17.49;86.08
76352;BME280;65179;47.786;19.138;2023-05-24T02:16:50;99996.47;;;17.56;85.95
76352;BME280;65179;47.786;19.138;2023-05-24T02:19:16;99997.56;;;17.55;86.07
76352;BME280;65179;47.786;19.138;2023-05-24T02:21:42;99996.75;;;17.54;85.97
76352;BME280;65179;47.786;19.138;2023-05-24T02:24:07;99991.22;;;17.44;86.71
76352;BME280;65179;47.786;19.138;2023-05-24T02:26:36;99994.81;;;17.60;86.36
76352;BME280;65179;47.786;19.138;2023-05-24T02:29:02;100001.66;;;17.67;85.84
76352;BME280;65179;47.786;19.138;2023-05-24T02:31:27;99993.44;;;17.72;85.48
76352;BME280;65179;47.786;19.138;2023-05-24T02:33:57;99999.50;;;17.64;85.98
76352;BME280;65179;47.786;19.138;2023-05-24T02:36:23;99994.53;;;17.61;86.15
76352;BME280;65179;47.786;19.138;2023-05-24T02:38:51;99992.63;;;17.57;86.17
76352;BME280;65179;47.786;19.138;2023-05-24T02:41:17;99987.69;;;17.54;86.36
76352;BME280;65179;47.786;19.138;2023-05-24T02:43:46;99994.28;;;17.53;86.45
76352;BME280;65179;47.786;19.138;2023-05-24T02:46:12;99987.41;;;17.55;86.48
76352;BME280;65179;47.786;19.138;2023-05-24T02:48:38;99990.94;;;17.45;86.71
76352;BME280;65179;47.786;19.138;2023-05-24T02:51:03;99992.87;;;17.40;87.28
76352;BME280;65179;47.786;19.138;2023-05-24T02:53:29;99984.34;;;17.41;87.26
76352;BME280;65179;47.786;19.138;2023-05-24T02:55:55;99993.16;;;17.38;87.75
76352;BME280;65179;47.786;19.138;2023-05-24T02:58:21;99990.12;;;17.40;87.51
76352;BME280;65179;47.786;19.138;2023-05-24T03:00:47;99987.66;;;17.38;87.61
76352;BME280;65179;47.786;19.138;2023-05-24T03:03:12;99990.69;;;17.47;87.28
76352;BME280;65179;47.786;19.138;2023-05-24T03:05:38;99997.28;;;17.41;87.15
76352;BME280;65179;47.786;19.138;2023-05-24T03:08:03;99992.31;;;17.38;87.49
76352;BME280;65179;47.786;19.138;2023-05-24T03:10:30;99994.53;;;17.36;87.76
76352;BME280;65179;47.786;19.138;2023-05-24T03:12:56;99986.84;;;17.38;87.84
76352;BME280;65179;47.786;19.138;2023-05-24T03:15:21;99998.09;;;17.31;88.08
76352;BME280;65179;47.786;19.138;2023-05-24T03:17:47;100001.09;;;17.35;87.59
76352;BME280;65179;47.786;19.138;2023-05-24T03:20:12;99991.75;;;17.31;87.83
76352;BME280;65179;47.786;19.138;2023-05-24T03:22:37;99993.44;;;17.32;88.09
76352;BME280;65179;47.786;19.138;2023-05-24T03:25:03;99992.87;;;17.25;88.51
76352;BME280;65179;47.786;19.138;2023-05-24T03:27:29;99993.69;;;17.35;88.09
76352;BME280;65179;47.786;19.138;2023-05-24T03:29:54;99984.09;;;17.38;88.13
76352;BME280;65179;47.786;19.138;2023-05-24T03:32:20;99990.12;;;17.30;88.28
76352;BME280;65179;47.786;19.138;2023-05-24T03:34:45;99990.94;;;17.30;88.67
76352;BME280;65179;47.786;19.138;2023-05-24T03:37:11;99994.53;;;17.26;88.72
76352;BME280;65179;47.786;19.138;2023-05-24T03:39:36;99993.41;;;17.27;88.73
76352;BME280;65179;47.786;19.138;2023-05-24T03:42:02;100000.84;;;17.36;88.31
76352;BME280;65179;47.786;19.138;2023-05-24T03:44:27;99998.38;;;17.40;88.13
76352;BME280;65179;47.786;19.138;2023-05-24T03:46:52;99993.69;;;17.45;88.09
76352;BME280;65179;47.786;19.138;2023-05-24T03:49:18;100003.56;;;17.31;88.38
76352;BME280;65179;47.786;19.138;2023-05-24T03:51:43;100001.94;;;17.35;88.30
76352;BME280;65179;47.786;19.138;2023-05-24T03:54:08;100005.78;;;17.39;88.20
76352;BME280;65179;47.786;19.138;2023-05-24T03:56:34;100001.38;;;17.33;88.51
76352;BME280;65179;47.786;19.138;2023-05-24T03:58:59;100003.56;;;17.41;88.23
76352;BME280;65179;47.786;19.138;2023-05-24T04:01:28;100009.87;;;17.37;88.30
76352;BME280;65179;47.786;19.138;2023-05-24T04:03:58;100009.59;;;17.28;88.70
76352;BME280;65179;47.786;19.138;2023-05-24T04:06:25;100005.50;;;17.36;88.50
76352;BME280;65179;47.786;19.138;2023-05-24T04:09:02;100010.44;;;17.39;88.33
76352;BME280;65179;47.786;19.138;2023-05-24T04:11:29;100008.25;;;17.36;88.45
76352;BME280;65179;47.786;19.138;2023-05-24T04:13:57;100013.19;;;17.39;88.20
76352;BME280;65179;47.786;19.138;2023-05-24T04:16:25;100018.97;;;17.42;88.17
76352;BME280;65179;47.786;19.138;2023-05-24T04:18:55;100011.56;;;17.43;88.05
76352;BME280;65179;47.786;19.138;2023-05-24T04:21:21;100005.50;;;17.46;87.97
76352;BME280;65179;47.786;19.138;2023-05-24T04:23:47;100017.06;;;17.53;87.65
76352;BME280;65179;47.786;19.138;2023-05-24T04:26:13;100012.69;;;17.62;87.54
76352;BME280;65179;47.786;19.138;2023-05-24T04:28:38;100017.63;;;17.60;87.18
76352;BME280;65179;47.786;19.138;2023-05-24T04:31:05;100020.91;;;17.62;87.38
76352;BME280;65179;47.786;19.138;2023-05-24T04:33:37;100021.47;;;17.69;87.13
76352;BME280;65179;47.786;19.138;2023-05-24T04:36:04;100025.31;;;17.68;87.19
76352;BME280;65179;47.786;19.138;2023-05-24T04:38:29;100020.09;;;17.67;87.43
76352;BME280;65179;47.786;19.138;2023-05-24T04:40:59;100028.06;;;17.73;86.93
76352;BME280;65179;47.786;19.138;2023-05-24T04:43:25;100033.56;;;17.73;87.17
76352;BME280;65179;47.786;19.138;2023-05-24T04:45:51;100033.00;;;17.81;86.64
76352;BME280;65179;47.786;19.138;2023-05-24T04:48:19;100035.19;;;17.84;86.67
76352;BME280;65179;47.786;19.138;2023-05-24T04:50:45;100042.88;;;17.87;86.75
76352;BME280;65179;47.786;19.138;2023-05-24T04:53:11;100047.00;;;17.85;86.63
76352;BME280;65179;47.786;19.138;2023-05-24T04:55:38;100040.97;;;17.93;86.65
76352;BME280;65179;47.786;19.138;2023-05-24T04:58:04;100057.16;;;17.94;86.38
76352;BME280;65179;47.786;19.138;2023-05-24T05:00:29;100052.22;;;18.01;85.87
76352;BME280;65179;47.786;19.138;2023-05-24T05:02:55;100060.44;;;18.16;85.52
76352;BME280;65179;47.786;19.138;2023-05-24T05:05:21;100064.53;;;18.29;85.26
76352;BME280;65179;47.786;19.138;2023-05-24T05:07:46;100063.69;;;18.29;85.47
76352;BME280;65179;47.786;19.138;2023-05-24T05:10:12;100065.34;;;18.30;84.61
76352;BME280;65179;47.786;19.138;2023-05-24T05:12:37;100073.06;;;18.28;84.84
76352;BME280;65179;47.786;19.138;2023-05-24T05:15:03;100072.22;;;18.22;84.38
76352;BME280;65179;47.786;19.138;2023-05-24T05:17:28;100071.69;;;18.20;84.78
76352;BME280;65179;47.786;19.138;2023-05-24T05:19:54;100070.59;;;18.16;84.70
76352;BME280;65179;47.786;19.138;2023-05-24T05:22:20;100071.41;;;18.22;84.59
76352;BME280;65179;47.786;19.138;2023-05-24T05:24:45;100069.75;;;18.26;84.44
76352;BME280;65179;47.786;19.138;2023-05-24T05:27:11;100075.78;;;18.33;84.13
76352;BME280;65179;47.786;19.138;2023-05-24T05:29:36;100077.97;;;18.31;84.13
76352;BME280;65179;47.786;19.138;2023-05-24T05:32:01;100076.34;;;18.25;84.09
76352;BME280;65179;47.786;19.138;2023-05-24T05:34:27;100079.94;;;18.25;84.20
76352;BME280;65179;47.786;19.138;2023-05-24T05:36:52;100077.97;;;18.31;83.96
76352;BME280;65179;47.786;19.138;2023-05-24T05:39:18;100078.53;;;18.43;83.64
76352;BME280;65179;47.786;19.138;2023-05-24T05:41:43;100082.34;;;18.52;84.02
76352;BME280;65179;47.786;19.138;2023-05-24T05:44:10;100075.72;;;18.63;83.33
76352;BME280;65179;47.786;19.138;2023-05-24T05:46:37;100084.22;;;18.76;83.24
76352;BME280;65179;47.786;19.138;2023-05-24T05:49:03;100081.75;;;18.70;82.80
76352;BME280;65179;47.786;19.138;2023-05-24T05:51:28;100087.22;;;18.80;82.77
76352;BME280;65179;47.786;19.138;2023-05-24T05:53:54;100096.84;;;18.82;82.31
76352;BME280;65179;47.786;19.138;2023-05-24T05:56:20;100088.84;;;18.86;81.11
76352;BME280;65179;47.786;19.138;2023-05-24T05:58:45;100095.09;;;19.02;81.20
76352;BME280;65179;47.786;19.138;2023-05-24T06:01:11;100081.09;;;18.98;80.54
76352;BME280;65179;47.786;19.138;2023-05-24T06:03:36;100086.06;;;18.96;81.12
76352;BME280;65179;47.786;19.138;2023-05-24T06:06:01;100083.75;;;19.18;80.63
76352;BME280;65179;47.786;19.138;2023-05-24T06:08:27;100096.66;;;19.23;80.47
76352;BME280;65179;47.786;19.138;2023-05-24T06:10:55;100097.97;;;19.40;79.98
76352;BME280;65179;47.786;19.138;2023-05-24T06:13:20;100106.25;;;19.35;79.80
76352;BME280;65179;47.786;19.138;2023-05-24T06:15:45;100105.72;;;19.23;79.91
76352;BME280;65179;47.786;19.138;2023-05-24T06:18:11;100108.78;;;19.17;79.56
76352;BME280;65179;47.786;19.138;2023-05-24T06:20:37;100100.81;;;19.15;79.91
76352;BME280;65179;47.786;19.138;2023-05-24T06:23:03;100104.41;;;19.16;79.38
76352;BME280;65179;47.786;19.138;2023-05-24T06:25:29;100109.34;;;19.19;79.21
76352;BME280;65179;47.786;19.138;2023-05-24T06:27:55;100109.25;;;19.34;79.57
76352;BME280;65179;47.786;19.138;2023-05-24T06:30:20;100113.91;;;19.43;78.46
76352;BME280;65179;47.786;19.138;2023-05-24T06:32:46;100110.84;;;19.50;78.15
76352;BME280;65179;47.786;19.138;2023-05-24T06:35:12;100110.50;;;19.61;78.44
76352;BME280;65179;47.786;19.138;2023-05-24T06:37:37;100113.12;;;19.77;78.21
76352;BME280;65179;47.786;19.138;2023-05-24T06:40:05;100110.88;;;19.84;77.14
76352;BME280;65179;47.786;19.138;2023-05-24T06:42:31;100115.28;;;19.85;77.03
76352;BME280;65179;47.786;19.138;2023-05-24T06:44:57;100104.25;;;19.85;76.29
76352;BME280;65179;47.786;19.138;2023-05-24T06:47:22;100106.47;;;19.83;76.79
76352;BME280;65179;47.786;19.138;2023-05-24T06:49:47;100117.38;;;19.98;76.15
76352;BME280;65179;47.786;19.138;2023-05-24T06:52:14;100114.06;;;20.01;76.38
76352;BME280;65179;47.786;19.138;2023-05-24T06:54:39;100115.88;;;20.10;75.64
76352;BME280;65179;47.786;19.138;2023-05-24T06:57:05;100118.59;;;20.15;75.54
76352;BME280;65179;47.786;19.138;2023-05-24T06:59:30;100123.44;;;20.33;75.06
76352;BME280;65179;47.786;19.138;2023-05-24T07:01:56;100119.44;;;20.45;74.93
76352;BME280;65179;47.786;19.138;2023-05-24T07:04:25;100124.69;;;20.46;74.46
76352;BME280;65179;47.786;19.138;2023-05-24T07:06:51;100126.22;;;20.57;74.19
76352;BME280;65179;47.786;19.138;2023-05-24T07:09:18;100113.53;;;20.56;73.78
76352;BME280;65179;47.786;19.138;2023-05-24T07:11:44;100123.81;;;20.51;73.88
76352;BME280;65179;47.786;19.138;2023-05-24T07:14:10;100130.12;;;20.51;74.20
76352;BME280;65179;47.786;19.138;2023-05-24T07:16:35;100132.19;;;20.64;74.00
76352;BME280;65179;47.786;19.138;2023-05-24T07:19:01;100134.97;;;20.88;73.53
76352;BME280;65179;47.786;19.138;2023-05-24T07:21:27;100131.09;;;20.89;72.65
76352;BME280;65179;47.786;19.138;2023-05-24T07:23:52;100123.50;;;21.04;72.49
76352;BME280;65179;47.786;19.138;2023-05-24T07:26:18;100126.44;;;21.13;73.03
76352;BME280;65179;47.786;19.138;2023-05-24T07:28:43;100121.72;;;21.13;71.86
76352;BME280;65179;47.786;19.138;2023-05-24T07:31:09;100120.75;;;21.04;71.44
76352;BME280;65179;47.786;19.138;2023-05-24T07:33:35;100113.25;;;21.29;71.38
76352;BME280;65179;47.786;19.138;2023-05-24T07:36:02;100135.78;;;21.36;71.55
76352;BME280;65179;47.786;19.138;2023-05-24T07:38:28;100127.88;;;21.48;70.88
76352;BME280;65179;47.786;19.138;2023-05-24T07:40:57;100127.34;;;21.64;70.44
76352;BME280;65179;47.786;19.138;2023-05-24T07:43:22;100125.88;;;21.72;70.15
76352;BME280;65179;47.786;19.138;2023-05-24T07:45:48;100126.19;;;21.89;69.62
76352;BME280;65179;47.786;19.138;2023-05-24T07:48:13;100134.06;;;21.77;69.90
76352;BME280;65179;47.786;19.138;2023-05-24T07:50:39;100127.16;;;21.61;69.73
76352;BME280;65179;47.786;19.138;2023-05-24T07:53:04;100136.63;;;21.92;69.45
76352;BME280;65179;47.786;19.138;2023-05-24T07:55:30;100135.72;;;21.97;67.78
76352;BME280;65179;47.786;19.138;2023-05-24T07:57:55;100138.97;;;21.85;68.13
76352;BME280;65179;47.786;19.138;2023-05-24T08:00:21;100139.19;;;21.70;67.90
76352;BME280;65179;47.786;19.138;2023-05-24T08:02:47;100144.53;;;21.61;68.25
76352;BME280;65179;47.786;19.138;2023-05-24T08:05:13;100132.75;;;21.93;68.65
76352;BME280;65179;47.786;19.138;2023-05-24T08:07:39;100136.13;;;22.22;67.72
76352;BME280;65179;47.786;19.138;2023-05-24T08:10:06;100135.78;;;22.42;66.75
76352;BME280;65179;47.786;19.138;2023-05-24T08:12:32;100140.19;;;22.11;65.75
76352;BME280;65179;47.786;19.138;2023-05-24T08:14:57;100142.09;;;21.97;67.22
76352;BME280;65179;47.786;19.138;2023-05-24T08:17:23;100147.09;;;21.76;67.24
76352;BME280;65179;47.786;19.138;2023-05-24T08:19:49;100145.44;;;21.75;67.63
76352;BME280;65179;47.786;19.138;2023-05-24T08:22:14;100154.75;;;22.17;66.69
76352;BME280;65179;47.786;19.138;2023-05-24T08:24:40;100152.31;;;21.97;66.98
76352;BME280;65179;47.786;19.138;2023-05-24T08:27:05;100156.19;;;22.14;67.37
76352;BME280;65179;47.786;19.138;2023-05-24T08:29:31;100156.88;;;21.87;67.81
76352;BME280;65179;47.786;19.138;2023-05-24T08:31:57;100156.75;;;21.98;68.09
76352;BME280;65179;47.786;19.138;2023-05-24T08:34:22;100158.03;;;21.86;68.42
76352;BME280;65179;47.786;19.138;2023-05-24T08:36:48;100163.91;;;21.80;68.75
76352;BME280;65179;47.786;19.138;2023-05-24T08:39:14;100167.94;;;21.69;68.39
76352;BME280;65179;47.786;19.138;2023-05-24T08:41:39;100170.91;;;21.54;68.63
76352;BME280;65179;47.786;19.138;2023-05-24T08:44:06;100167.31;;;22.28;67.77
76352;BME280;65179;47.786;19.138;2023-05-24T08:46:35;100174.12;;;22.17;67.17
76352;BME280;65179;47.786;19.138;2023-05-24T08:49:02;100163.75;;;22.41;66.27
76352;BME280;65179;47.786;19.138;2023-05-24T08:51:28;100175.50;;;22.33;66.72
76352;BME280;65179;47.786;19.138;2023-05-24T08:53:57;100189.91;;;22.16;67.11
76352;BME280;65179;47.786;19.138;2023-05-24T08:56:24;100180.88;;;22.11;66.71
76352;BME280;65179;47.786;19.138;2023-05-24T08:58:51;100173.94;;;22.13;66.74
76352;BME280;65179;47.786;19.138;2023-05-24T09:01:18;100187.06;;;22.21;66.70
76352;BME280;65179;47.786;19.138;2023-05-24T09:03:45;100180.69;;;22.99;64.96
76352;BME280;65179;47.786;19.138;2023-05-24T09:06:12;100187.25;;;23.03;64.96
76352;BME280;65179;47.786;19.138;2023-05-24T09:08:41;100183.88;;;23.60;62.65
76352;BME280;65179;47.786;19.138;2023-05-24T09:11:07;100184.72;;;23.96;61.97
76352;BME280;65179;47.786;19.138;2023-05-24T09:13:33;100190.34;;;24.05;60.12
76352;BME280;65179;47.786;19.138;2023-05-24T09:15:59;100186.09;;;24.21;60.21
76352;BME280;65179;47.786;19.138;2023-05-24T09:18:25;100186.22;;;24.69;59.39
76352;BME280;65179;47.786;19.138;2023-05-24T09:20:50;100188.94;;;24.30;60.00
76352;BME280;65179;47.786;19.138;2023-05-24T09:23:16;100174.62;;;24.00;61.46
76352;BME280;65179;47.786;19.138;2023-05-24T09:25:46;100179.00;;;23.79;61.59
76352;BME280;65179;47.786;19.138;2023-05-24T09:28:13;100178.22;;;24.15;61.37
76352;BME280;65179;47.786;19.138;2023-05-24T09:30:56;100186.22;;;24.69;58.52
76352;BME280;65179;47.786;19.138;2023-05-24T09:33:22;100181.03;;;24.98;57.04
76352;BME280;65179;47.786;19.138;2023-05-24T09:35:47;100185.66;;;25.11;56.49
76352;BME280;65179;47.786;19.138;2023-05-24T09:38:17;100181.06;;;25.54;55.89
76352;BME280;65179;47.786;19.138;2023-05-24T09:40:44;100175.38;;;24.81;56.47
76352;BME280;65179;47.786;19.138;2023-05-24T09:43:10;100176.37;;;24.85;56.86
76352;BME280;65179;47.786;19.138;2023-05-24T09:45:45;100173.34;;;25.43;56.88
76352;BME280;65179;47.786;19.138;2023-05-24T09:48:11;100181.44;;;25.79;55.32
76352;BME280;65179;47.786;19.138;2023-05-24T09:50:37;100181.78;;;25.94;54.49
76352;BME280;65179;47.786;19.138;2023-05-24T09:53:03;100182.28;;;25.96;55.25
76352;BME280;65179;47.786;19.138;2023-05-24T09:55:28;100184.09;;;26.01;54.80
76352;BME280;65179;47.786;19.138;2023-05-24T09:58:07;100176.22;;;26.03;54.48
76352;BME280;65179;47.786;19.138;2023-05-24T10:00:42;100183.75;;;25.77;54.22
76352;BME280;65179;47.786;19.138;2023-05-24T10:03:10;100179.34;;;26.36;54.04
76352;BME280;65179;47.786;19.138;2023-05-24T10:05:37;100180.91;;;25.51;55.06
76352;BME280;65179;47.786;19.138;2023-05-24T10:08:02;100187.34;;;25.94;53.77
76352;BME280;65179;47.786;19.138;2023-05-24T10:10:33;100186.81;;;25.67;54.61
76352;BME280;65179;47.786;19.138;2023-05-24T10:12:59;100183.06;;;25.97;53.57
76352;BME280;65179;47.786;19.138;2023-05-24T10:15:26;100186.50;;;25.68;53.98
76352;BME280;65179;47.786;19.138;2023-05-24T10:17:53;100183.53;;;25.17;54.21
76352;BME280;65179;47.786;19.138;2023-05-24T10:20:18;100193.22;;;24.58;55.21
76352;BME280;65179;47.786;19.138;2023-05-24T10:22:46;100180.94;;;24.81;54.92
76352;BME280;65179;47.786;19.138;2023-05-24T10:25:23;100187.62;;;25.58;53.62
76352;BME280;65179;47.786;19.138;2023-05-24T10:27:57;100191.09;;;25.73;51.77
76352;BME280;65179;47.786;19.138;2023-05-24T10:30:31;100181.47;;;26.13;52.26
76352;BME280;65179;47.786;19.138;2023-05-24T10:33:00;100188.78;;;26.69;50.72
76352;BME280;65179;47.786;19.138;2023-05-24T10:35:27;100185.66;;;26.87;49.19
76352;BME280;65179;47.786;19.138;2023-05-24T10:37:53;100182.91;;;26.45;49.93
76352;BME280;65179;47.786;19.138;2023-05-24T10:40:20;100191.59;;;26.00;51.25
76352;BME280;65179;47.786;19.138;2023-05-24T10:42:47;100186.03;;;25.27;51.95
76352;BME280;65179;47.786;19.138;2023-05-24T10:47:47;100196.87;;;26.19;50.04
76352;BME280;65179;47.786;19.138;2023-05-24T10:50:17;100199.44;;;25.73;51.40
76352;BME280;65179;47.786;19.138;2023-05-24T10:52:43;100197.59;;;25.42;52.62
76352;BME280;65179;47.786;19.138;2023-05-24T10:55:09;100194.50;;;25.13;52.32
76352;BME280;65179;47.786;19.138;2023-05-24T10:57:36;100194.38;;;24.88;53.63
76352;BME280;65179;47.786;19.138;2023-05-24T11:03:05;100198.75;;;25.58;52.75
76352;BME280;65179;47.786;19.138;2023-05-24T11:05:53;100190.28;;;26.06;50.44
76352;BME280;65179;47.786;19.138;2023-05-24T11:08:32;100191.22;;;26.87;48.82
76352;BME280;65179;47.786;19.138;2023-05-24T11:11:14;100180.28;;;27.12;47.22
76352;BME280;65179;47.786;19.138;2023-05-24T11:13:47;100183.25;;;27.15;47.03
76352;BME280;65179;47.786;19.138;2023-05-24T11:16:32;100189.72;;;27.28;46.38
76352;BME280;65179;47.786;19.138;2023-05-24T11:19:10;100180.88;;;27.63;45.92
76352;BME280;65179;47.786;19.138;2023-05-24T11:21:36;100178.50;;;27.45;45.56
76352;BME280;65179;47.786;19.138;2023-05-24T11:24:02;100181.28;;;27.74;46.23
76352;BME280;65179;47.786;19.138;2023-05-24T11:26:28;100177.50;;;27.99;46.33
76352;BME280;65179;47.786;19.138;2023-05-24T11:28:53;100179.50;;;27.90;46.07
76352;BME280;65179;47.786;19.138;2023-05-24T11:31:26;100176.50;;;27.16;46.73
76352;BME280;65179;47.786;19.138;2023-05-24T11:33:51;100176.28;;;26.92;47.94
76352;BME280;65179;47.786;19.138;2023-05-24T11:36:18;100178.66;;;26.47;49.18
76352;BME280;65179;47.786;19.138;2023-05-24T11:38:45;100174.41;;;26.41;48.75
76352;BME280;65179;47.786;19.138;2023-05-24T11:41:12;100182.03;;;26.87;49.15
76352;BME280;65179;47.786;19.138;2023-05-24T11:43:37;100174.78;;;27.32;46.16
76352;BME280;65179;47.786;19.138;2023-05-24T11:46:03;100174.31;;;27.59;46.08
76352;BME280;65179;47.786;19.138;2023-05-24T11:48:28;100182.22;;;27.20;44.93
76352;BME280;65179;47.786;19.138;2023-05-24T11:50:55;100176.06;;;27.05;47.31
76352;BME280;65179;47.786;19.138;2023-05-24T11:53:22;100182.09;;;26.61;48.30
76352;BME280;65179;47.786;19.138;2023-05-24T11:55:49;100169.81;;;26.45;49.12
76352;BME280;65179;47.786;19.138;2023-05-24T12:00:41;100175.22;;;25.82;51.41
76352;BME280;65179;47.786;19.138;2023-05-24T12:03:08;100174.56;;;25.68;52.74
76352;BME280;65179;47.786;19.138;2023-05-24T12:05:35;100178.44;;;25.58;52.29
76352;BME280;65179;47.786;19.138;2023-05-24T12:08:02;100172.13;;;25.75;51.92
76352;BME280;65179;47.786;19.138;2023-05-24T12:10:31;100178.19;;;25.85;49.99
76352;BME280;65179;47.786;19.138;2023-05-24T12:12:56;100165.41;;;26.27;49.78
76352;BME280;65179;47.786;19.138;2023-05-24T12:15:22;100155.69;;;26.67;47.50
76352;BME280;65179;47.786;19.138;2023-05-24T12:17:47;100147.47;;;26.79;48.83
76352;BME280;65179;47.786;19.138;2023-05-24T12:20:17;100140.50;;;26.39;49.23
76352;BME280;65179;47.786;19.138;2023-05-24T12:22:51;100152.63;;;26.43;48.44
76352;BME280;65179;47.786;19.138;2023-05-24T12:25:17;100156.72;;;26.37;48.78
76352;BME280;65179;47.786;19.138;2023-05-24T12:27:53;100161.66;;;26.14;48.85
76352;BME280;65179;47.786;19.138;2023-05-24T12:30:26;100165.41;;;26.27;48.81
76352;BME280;65179;47.786;19.138;2023-05-24T12:32:52;100163.78;;;26.26;47.36
76352;BME280;65179;47.786;19.138;2023-05-24T12:35:21;100163.31;;;26.15;48.17
76352;BME280;65179;47.786;19.138;2023-05-24T12:37:48;100169.03;;;26.10;48.36
76352;BME280;65179;47.786;19.138;2023-05-24T12:40:20;100153.75;;;26.59;48.24
76352;BME280;65179;47.786;19.138;2023-05-24T12:42:52;100145.28;;;26.93;47.06
76352;BME280;65179;47.786;19.138;2023-05-24T12:45:20;100149.44;;;26.79;47.36
76352;BME280;65179;47.786;19.138;2023-05-24T12:47:50;100144.59;;;26.96;47.65
76352;BME280;65179;47.786;19.138;2023-05-24T12:50:19;100143.56;;;27.10;47.14
76352;BME280;65179;47.786;19.138;2023-05-24T12:52:46;100140.81;;;27.01;47.38
76352;BME280;65179;47.786;19.138;2023-05-24T12:55:13;100136.81;;;26.73;47.35
76352;BME280;65179;47.786;19.138;2023-05-24T12:57:42;100138.97;;;26.76;47.37
76352;BME280;65179;47.786;19.138;2023-05-24T13:00:11;100132.75;;;26.53;48.00
76352;BME280;65179;47.786;19.138;2023-05-24T13:02:38;100121.97;;;26.52;47.57
76352;BME280;65179;47.786;19.138;2023-05-24T13:05:06;100132.22;;;26.85;47.95